createdAt,value
2022-08-07T00:00:40.158Z,25.57
2022-08-07T00:10:47.868Z,25.61
2022-08-07T00:20:53.628Z,25.71
2022-08-07T00:30:57.334Z,25.50
2022-08-07T00:41:02.707Z,25.95
2022-08-07T00:51:05.980Z,25.92
2022-08-07T01:01:10.975Z,25.85
2022-08-07T01:12:23.866Z,26.10
2022-08-07T01:21:39.577Z,26.06
2022-08-07T01:31:48.275Z,26.03
2022-08-07T01:42:01.434Z,26.23
2022-08-07T01:52:16.781Z,25.88
2022-08-07T02:02:32.529Z,25.82
2022-08-07T02:12:50.254Z,25.77
2022-08-07T02:22:59.731Z,25.94
2022-08-07T02:33:09.535Z,25.64
2022-08-07T02:43:16.060Z,25.51
2022-08-07T02:53:27.393Z,25.70
2022-08-07T03:03:49.447Z,25.65
2022-08-07T03:13:57.517Z,25.47
2022-08-07T03:24:18.917Z,25.38
2022-08-07T03:34:27.371Z,25.32
2022-08-07T03:44:34.422Z,25.26
2022-08-07T03:54:54.314Z,25.28
2022-08-07T04:04:59.376Z,24.83
2022-08-07T04:15:02.644Z,25.12
2022-08-07T04:25:12.552Z,24.94
2022-08-07T04:35:16.168Z,24.92
2022-08-07T04:45:57.763Z,24.87
2022-08-07T04:58:11.156Z,25.12
2022-08-07T05:06:19.677Z,24.79
2022-08-07T05:16:24.321Z,24.91
2022-08-07T05:26:30.330Z,25.03
2022-08-07T05:36:35.696Z,25.32
2022-08-07T05:46:42.867Z,25.19
2022-08-07T05:56:48.511Z,25.39
2022-08-07T06:06:56.426Z,24.09
2022-08-07T06:17:08.462Z,24.67
2022-08-07T06:27:44.304Z,25.35
2022-08-07T06:37:45.164Z,25.73
2022-08-07T06:47:58.700Z,26.03
2022-08-07T06:58:05.512Z,25.51
2022-08-07T07:08:18.432Z,26.03
2022-08-07T07:18:47.695Z,26.39
2022-08-07T07:29:56.934Z,26.59
2022-08-07T07:39:21.378Z,26.87
2022-08-07T07:50:35.973Z,25.75
2022-08-07T07:59:53.959Z,27.37
2022-08-07T08:10:05.334Z,28.20
2022-08-07T08:20:17.366Z,28.56
2022-08-07T08:30:29.180Z,28.44
2022-08-07T08:40:34.714Z,28.81
2022-08-07T08:50:46.821Z,29.09
2022-08-07T09:01:01.034Z,28.52
2022-08-07T09:11:43.028Z,29.62
2022-08-07T09:22:09.929Z,29.61
2022-08-07T09:32:26.492Z,30.59
2022-08-07T09:42:39.878Z,30.68
2022-08-07T09:52:51.826Z,30.76
2022-08-07T10:04:05.538Z,30.83
2022-08-07T10:14:01.045Z,31.69
2022-08-07T10:24:39.635Z,31.58
2022-08-07T10:34:56.189Z,32.50
2022-08-07T10:45:04.124Z,31.27
2022-08-07T10:55:32.500Z,31.45
2022-08-07T11:05:49.293Z,31.70
2022-08-07T11:15:57.023Z,32.29
2022-08-07T11:26:07.694Z,32.86
2022-08-07T11:36:25.382Z,31.56
2022-08-07T11:46:45.414Z,32.08
2022-08-07T11:57:14.199Z,32.58
2022-08-07T12:07:27.927Z,32.61
2022-08-07T12:17:58.652Z,31.94
2022-08-07T12:28:10.998Z,32.64
2022-08-07T12:38:30.568Z,33.03
2022-08-07T12:48:53.104Z,32.58
2022-08-07T12:59:00.863Z,32.63
2022-08-07T13:10:19.440Z,33.25
2022-08-07T13:19:50.830Z,32.63
2022-08-07T13:30:03.561Z,33.43
2022-08-07T13:40:35.321Z,33.79
2022-08-07T13:50:55.533Z,33.73
2022-08-07T14:01:12.594Z,34.15
2022-08-07T14:11:17.752Z,34.07
2022-08-07T14:22:03.958Z,34.00
2022-08-07T14:31:56.244Z,34.48
2022-08-07T14:42:22.470Z,32.37
2022-08-07T14:52:28.820Z,33.69
2022-08-07T15:02:35.186Z,33.53
2022-08-07T15:12:42.275Z,33.35
2022-08-07T15:22:51.579Z,33.16
2022-08-07T15:33:03.738Z,33.17
2022-08-07T15:43:53.619Z,33.59
2022-08-07T15:53:52.006Z,33.26
2022-08-07T16:04:01.313Z,32.91
2022-08-07T16:14:17.149Z,32.91
2022-08-07T16:24:34.983Z,32.88
2022-08-07T16:34:48.198Z,32.75
2022-08-07T16:45:14.750Z,32.43
2022-08-07T16:55:47.418Z,32.56
2022-08-07T17:06:28.891Z,32.37
2022-08-07T17:16:28.599Z,32.25
2022-08-07T17:26:51.039Z,31.99
2022-08-07T17:37:00.029Z,31.89
2022-08-07T17:47:37.929Z,31.52
2022-08-07T17:57:58.510Z,31.34
2022-08-07T18:08:17.543Z,31.02
2022-08-07T18:21:00.858Z,30.49
2022-08-07T18:29:05.461Z,30.07
2022-08-07T18:40:08.132Z,29.72
2022-08-07T18:50:49.852Z,29.44
2022-08-07T19:01:03.795Z,29.24
2022-08-07T19:11:35.100Z,28.96
2022-08-07T19:21:56.822Z,28.15
2022-08-07T19:32:28.786Z,28.19
2022-08-07T19:42:30.423Z,28.65
2022-08-07T19:52:35.761Z,28.82
2022-08-07T20:02:52.242Z,28.51
2022-08-07T20:13:00.008Z,28.05
2022-08-07T20:23:41.892Z,27.74
2022-08-07T20:33:38.686Z,27.50
2022-08-07T20:43:47.704Z,27.08
2022-08-07T20:54:03.730Z,26.65
2022-08-07T21:04:21.893Z,26.14
2022-08-07T21:14:32.749Z,25.62
2022-08-07T21:24:48.028Z,25.48
2022-08-07T21:34:59.126Z,25.19
2022-08-07T21:45:08.502Z,24.89
2022-08-07T21:55:38.491Z,24.64
2022-08-07T22:05:49.763Z,24.43
2022-08-07T22:16:39.162Z,24.22
2022-08-07T22:26:29.758Z,23.94
2022-08-07T22:36:38.505Z,23.52
2022-08-07T22:47:06.085Z,23.44
2022-08-07T22:57:34.077Z,23.30
2022-08-07T23:07:49.589Z,23.25
2022-08-07T23:18:10.422Z,22.87
2022-08-07T23:28:28.225Z,22.78
2022-08-07T23:38:54.707Z,22.71
2022-08-07T23:49:16.946Z,22.38
